createdAt,value
2023-12-14T00:00:10.259Z,14.30
2023-12-14T00:02:38.793Z,13.43
2023-12-14T00:05:07.906Z,12.37
2023-12-14T00:07:36.190Z,12.27
2023-12-14T00:10:06.021Z,12.10
2023-12-14T00:12:34.361Z,11.87
2023-12-14T00:15:02.626Z,12.87
2023-12-14T00:17:32.900Z,12.10
2023-12-14T00:20:01.701Z,14.30
2023-12-14T00:22:29.966Z,13.50
2023-12-14T00:24:58.156Z,10.73
2023-12-14T00:27:26.314Z,12.73
2023-12-14T00:29:54.493Z,12.30
2023-12-14T00:32:22.632Z,11.50
2023-12-14T00:34:52.149Z,9.10
2023-12-14T00:37:20.378Z,8.67
2023-12-14T00:39:48.526Z,9.27
2023-12-14T00:42:16.698Z,9.67
2023-12-14T00:44:44.857Z,8.70
2023-12-14T00:47:13.104Z,9.20
2023-12-14T00:49:41.361Z,7.43
2023-12-14T00:52:10.903Z,7.13
2023-12-14T00:54:39.023Z,6.47
2023-12-14T00:57:07.306Z,6.90
2023-12-14T00:59:35.544Z,6.57
2023-12-14T01:02:03.766Z,6.40
2023-12-14T01:04:32.323Z,5.90
2023-12-14T01:07:00.566Z,5.70
2023-12-14T01:09:30.760Z,6.10
2023-12-14T01:11:59.830Z,6.23
2023-12-14T01:14:28.614Z,7.20
2023-12-14T01:16:56.912Z,5.53
2023-12-14T01:19:26.341Z,6.13
2023-12-14T01:21:56.599Z,6.00
2023-12-14T01:24:24.786Z,6.27
2023-12-14T01:26:54.265Z,6.27
2023-12-14T01:29:22.460Z,5.73
2023-12-14T01:31:50.664Z,6.00
2023-12-14T01:34:18.956Z,6.00
2023-12-14T01:36:47.185Z,5.70
2023-12-14T01:39:16.693Z,5.70
2023-12-14T01:41:44.918Z,5.53
2023-12-14T01:44:14.467Z,5.70
2023-12-14T01:46:42.633Z,5.80
2023-12-14T01:49:10.847Z,6.30
2023-12-14T01:51:39.309Z,6.10
2023-12-14T01:54:07.495Z,5.50
2023-12-14T01:56:35.710Z,5.63
2023-12-14T01:59:04.104Z,6.23
2023-12-14T02:01:43.470Z,5.33
2023-12-14T02:04:12.959Z,5.27
2023-12-14T02:06:41.835Z,5.33
2023-12-14T02:09:10.876Z,4.90
2023-12-14T02:11:39.361Z,5.43
2023-12-14T02:14:10.631Z,4.50
2023-12-14T02:16:40.488Z,4.50
2023-12-14T02:19:09.264Z,4.63
2023-12-14T02:21:37.549Z,4.93
2023-12-14T02:24:07.443Z,3.70
2023-12-14T02:26:35.594Z,4.50
2023-12-14T02:29:03.796Z,4.50
2023-12-14T02:31:32.141Z,4.97
2023-12-14T02:34:00.397Z,4.77
2023-12-14T02:36:28.550Z,4.77
2023-12-14T02:38:56.861Z,4.43
2023-12-14T02:41:27.436Z,4.33
2023-12-14T02:43:55.569Z,4.70
2023-12-14T02:46:23.945Z,4.63
2023-12-14T02:48:52.157Z,4.67
2023-12-14T02:51:20.467Z,4.20
2023-12-14T02:53:48.645Z,5.60
2023-12-14T02:56:16.811Z,5.00
2023-12-14T02:58:50.320Z,4.30
2023-12-14T03:01:21.441Z,4.93
2023-12-14T03:03:49.843Z,5.43
2023-12-14T03:06:18.115Z,6.10
2023-12-14T03:08:46.281Z,6.50
2023-12-14T03:11:24.766Z,4.93
2023-12-14T03:13:54.473Z,6.10
2023-12-14T03:16:23.584Z,5.73
2023-12-14T03:18:54.282Z,5.50
2023-12-14T03:21:22.711Z,6.57
2023-12-14T03:23:51.070Z,5.90
2023-12-14T03:26:19.237Z,5.77
2023-12-14T03:28:47.441Z,6.27
2023-12-14T03:31:17.223Z,5.20
2023-12-14T03:33:45.789Z,6.20
2023-12-14T03:36:14.069Z,5.80
2023-12-14T03:38:42.191Z,5.67
2023-12-14T03:41:10.687Z,6.40
2023-12-14T03:43:39.137Z,6.43
2023-12-14T03:46:08.043Z,6.70
2023-12-14T03:48:37.540Z,6.17
2023-12-14T03:51:06.934Z,6.70
2023-12-14T03:53:35.273Z,5.53
2023-12-14T03:56:03.633Z,6.70
2023-12-14T03:58:31.869Z,6.07
2023-12-14T04:01:00.095Z,6.57
2023-12-14T04:03:28.276Z,6.80
2023-12-14T04:05:58.121Z,8.77
2023-12-14T04:08:26.355Z,9.43
2023-12-14T04:10:54.576Z,7.93
2023-12-14T04:13:22.760Z,7.27
2023-12-14T04:15:50.957Z,7.67
2023-12-14T04:18:19.153Z,7.83
2023-12-14T04:20:47.411Z,7.57
2023-12-14T04:23:17.138Z,7.77
2023-12-14T04:25:45.402Z,8.73
2023-12-14T04:28:13.639Z,10.23
2023-12-14T04:30:42.648Z,10.00
2023-12-14T04:33:10.851Z,9.90
2023-12-14T04:35:39.130Z,8.43
2023-12-14T04:38:07.302Z,9.47
2023-12-14T04:40:36.819Z,7.70
2023-12-14T04:43:04.958Z,8.30
2023-12-14T04:45:33.453Z,7.57
2023-12-14T04:48:01.852Z,7.10
2023-12-14T04:50:30.153Z,7.40
2023-12-14T04:52:58.317Z,8.70
2023-12-14T04:55:26.541Z,7.80
2023-12-14T04:57:56.134Z,7.70
2023-12-14T05:00:24.497Z,7.20
2023-12-14T05:02:52.622Z,8.73
2023-12-14T05:05:20.737Z,7.40
2023-12-14T05:07:48.967Z,7.90
2023-12-14T05:10:17.461Z,8.10
2023-12-14T05:12:45.834Z,9.63
2023-12-14T05:15:15.583Z,7.30
2023-12-14T05:17:43.807Z,8.27
2023-12-14T05:20:13.418Z,8.37
2023-12-14T05:22:41.660Z,9.50
2023-12-14T05:25:11.102Z,7.77
2023-12-14T05:27:39.367Z,8.77
2023-12-14T05:30:09.653Z,9.70
2023-12-14T05:32:39.627Z,10.03
2023-12-14T05:35:10.701Z,10.80
2023-12-14T05:37:41.059Z,9.93
2023-12-14T05:40:12.035Z,10.83
2023-12-14T05:42:40.412Z,12.00
2023-12-14T05:45:12.703Z,11.43
2023-12-14T05:47:43.469Z,11.03
2023-12-14T05:50:11.737Z,10.23
2023-12-14T05:52:41.632Z,10.67
2023-12-14T05:55:11.601Z,10.53
2023-12-14T05:57:39.938Z,11.73
2023-12-14T06:00:09.895Z,11.50
2023-12-14T06:02:39.649Z,9.00
2023-12-14T06:05:11.055Z,10.33
2023-12-14T06:07:39.765Z,10.60
2023-12-14T06:10:09.759Z,10.10
2023-12-14T06:12:38.280Z,9.73
2023-12-14T06:15:08.734Z,12.37
2023-12-14T06:17:38.456Z,12.33
2023-12-14T06:20:10.105Z,11.73
2023-12-14T06:22:39.207Z,10.73
2023-12-14T06:25:08.413Z,11.60
2023-12-14T06:27:36.741Z,12.57
2023-12-14T06:30:05.799Z,12.63
2023-12-14T06:32:34.477Z,11.10
2023-12-14T06:35:03.136Z,13.20
2023-12-14T06:37:32.918Z,12.50
2023-12-14T06:40:01.324Z,11.43
2023-12-14T06:42:30.032Z,12.67
2023-12-14T06:44:58.338Z,12.07
2023-12-14T06:47:26.857Z,13.50
2023-12-14T06:49:56.949Z,13.67
2023-12-14T06:52:25.321Z,13.80
2023-12-14T06:54:54.926Z,15.30
2023-12-14T06:57:24.775Z,15.03
2023-12-14T06:59:54.629Z,13.63
2023-12-14T07:02:22.895Z,14.10
2023-12-14T07:04:51.167Z,13.93
2023-12-14T07:07:19.457Z,14.00
2023-12-14T07:09:48.193Z,13.23
2023-12-14T07:12:17.891Z,13.50
2023-12-14T07:14:46.196Z,12.73
2023-12-14T07:17:14.495Z,12.50
2023-12-14T07:19:42.828Z,12.87
2023-12-14T07:22:10.072Z,13.70
2023-12-14T07:24:44.912Z,14.87
2023-12-14T07:27:21.991Z,12.27
2023-12-14T07:29:50.432Z,14.93
2023-12-14T07:32:18.789Z,16.03
2023-12-14T07:34:47.042Z,14.90
2023-12-14T07:37:15.589Z,15.10
2023-12-14T07:39:44.059Z,20.63
2023-12-14T07:42:12.382Z,19.40
2023-12-14T07:44:42.501Z,18.23
2023-12-14T07:47:10.769Z,20.23
2023-12-14T07:49:39.201Z,17.33
2023-12-14T07:52:08.658Z,19.63
2023-12-14T07:54:37.565Z,17.77
2023-12-14T07:57:06.164Z,18.37
2023-12-14T07:59:34.784Z,14.50
2023-12-14T08:02:05.015Z,15.53
2023-12-14T08:04:37.739Z,16.53
2023-12-14T08:07:06.131Z,15.50
2023-12-14T08:09:35.061Z,17.00
2023-12-14T08:12:03.370Z,17.00
2023-12-14T08:14:33.943Z,14.70
2023-12-14T08:17:02.245Z,16.90
2023-12-14T08:19:32.244Z,15.80
2023-12-14T08:22:01.209Z,14.57
2023-12-14T08:24:29.588Z,15.13
2023-12-14T08:26:57.923Z,14.53
2023-12-14T08:29:26.177Z,13.00
2023-12-14T08:31:58.114Z,14.47
2023-12-14T08:34:26.902Z,14.20
2023-12-14T08:36:58.250Z,14.57
2023-12-14T08:39:27.764Z,14.27
2023-12-14T08:41:56.099Z,13.67
2023-12-14T08:44:24.467Z,13.50
2023-12-14T08:46:52.971Z,13.97
2023-12-14T08:49:21.386Z,12.20
2023-12-14T08:51:49.624Z,13.60
2023-12-14T08:54:19.594Z,13.20
2023-12-14T08:56:48.689Z,10.93
2023-12-14T08:59:17.022Z,11.13
2023-12-14T09:01:45.498Z,12.00
2023-12-14T09:04:14.365Z,11.87
2023-12-14T09:06:45.919Z,13.10
2023-12-14T09:09:14.321Z,11.13
2023-12-14T09:11:44.010Z,10.80
2023-12-14T09:14:12.454Z,9.90
2023-12-14T09:16:40.788Z,8.93
2023-12-14T09:19:09.141Z,9.03
2023-12-14T09:21:44.271Z,9.50
2023-12-14T09:24:14.991Z,9.10
2023-12-14T09:26:44.693Z,9.10
2023-12-14T09:29:13.197Z,8.73
2023-12-14T09:31:44.812Z,8.43
2023-12-14T09:34:14.002Z,8.60
2023-12-14T09:36:42.587Z,8.80
2023-12-14T09:39:11.717Z,8.27
2023-12-14T09:41:40.710Z,8.17
2023-12-14T09:44:11.088Z,7.53
2023-12-14T09:46:45.736Z,8.13
2023-12-14T09:49:15.958Z,8.07
2023-12-14T09:51:44.457Z,7.60
2023-12-14T09:54:12.911Z,6.67
2023-12-14T09:56:49.219Z,9.17
2023-12-14T09:59:19.019Z,9.07
2023-12-14T10:01:47.691Z,8.40
2023-12-14T10:04:21.591Z,8.63
2023-12-14T10:06:50.598Z,7.20
2023-12-14T10:09:25.684Z,7.27
2023-12-14T10:12:06.311Z,6.67
2023-12-14T10:14:37.102Z,6.67
2023-12-14T10:17:18.776Z,8.43
2023-12-14T10:19:48.794Z,7.67
2023-12-14T10:22:19.652Z,8.03
2023-12-14T10:24:49.410Z,7.30
2023-12-14T10:27:18.738Z,8.37
2023-12-14T10:29:48.624Z,6.90
2023-12-14T10:32:16.983Z,7.50
2023-12-14T10:34:45.325Z,7.37
2023-12-14T10:37:15.522Z,9.20
2023-12-14T10:39:45.480Z,8.23
2023-12-14T10:42:21.615Z,7.33
2023-12-14T10:45:11.728Z,7.20
2023-12-14T10:47:48.497Z,7.40
2023-12-14T10:50:18.063Z,6.87
2023-12-14T10:52:48.009Z,6.40
2023-12-14T10:55:24.829Z,6.63
2023-12-14T10:57:54.270Z,6.23
2023-12-14T11:00:24.206Z,7.60
2023-12-14T11:02:54.284Z,7.63
2023-12-14T11:05:30.480Z,7.00
2023-12-14T11:08:05.132Z,6.07
2023-12-14T11:10:41.492Z,7.43
2023-12-14T11:13:13.436Z,6.63
2023-12-14T11:15:51.665Z,7.80
2023-12-14T11:18:28.804Z,5.70
2023-12-14T11:21:01.549Z,6.80
2023-12-14T11:23:34.948Z,6.30
2023-12-14T11:26:06.828Z,6.13
2023-12-14T11:28:37.819Z,5.70
2023-12-14T11:31:11.619Z,5.73
2023-12-14T11:33:43.686Z,5.40
2023-12-14T11:36:15.248Z,4.87
2023-12-14T11:38:45.019Z,5.00
2023-12-14T11:41:15.068Z,5.90
2023-12-14T11:43:45.677Z,5.60
2023-12-14T11:46:16.915Z,6.03
2023-12-14T11:48:47.275Z,5.00
2023-12-14T11:51:15.747Z,5.13
2023-12-14T11:53:49.072Z,4.23
2023-12-14T11:56:19.933Z,4.40
2023-12-14T11:58:49.908Z,4.60
2023-12-14T12:01:22.323Z,5.10
2023-12-14T12:03:50.967Z,4.30
2023-12-14T12:06:24.196Z,3.83
2023-12-14T12:08:53.421Z,3.20
2023-12-14T12:11:25.216Z,3.93
2023-12-14T12:13:54.274Z,4.90
2023-12-14T12:16:24.439Z,3.60
2023-12-14T12:18:54.061Z,4.47
2023-12-14T12:21:22.606Z,4.77
2023-12-14T12:23:50.978Z,4.20
2023-12-14T12:26:19.395Z,3.87
2023-12-14T12:28:49.299Z,3.90
2023-12-14T12:31:18.147Z,4.30
2023-12-14T12:33:48.242Z,3.83
2023-12-14T12:36:16.519Z,4.80
2023-12-14T12:38:44.779Z,4.07
2023-12-14T12:41:13.164Z,4.33
2023-12-14T12:43:41.478Z,4.50
2023-12-14T12:46:09.776Z,4.70
2023-12-14T12:48:38.897Z,4.60
2023-12-14T12:51:09.285Z,4.70
2023-12-14T12:53:37.691Z,4.60
2023-12-14T12:56:07.011Z,4.70
2023-12-14T12:58:35.334Z,4.80
2023-12-14T13:01:03.838Z,4.93
2023-12-14T13:03:32.240Z,5.40
2023-12-14T13:06:00.666Z,5.70
2023-12-14T13:08:30.369Z,4.97
2023-12-14T13:10:58.684Z,5.40
2023-12-14T13:13:27.001Z,4.97
2023-12-14T13:15:55.258Z,5.13
2023-12-14T13:18:23.599Z,5.10
2023-12-14T13:20:51.934Z,4.97
2023-12-14T13:23:20.349Z,5.77
2023-12-14T13:25:50.357Z,5.20
2023-12-14T13:28:18.915Z,4.97
2023-12-14T13:30:47.423Z,4.20
2023-12-14T13:33:16.020Z,4.43
2023-12-14T13:35:44.735Z,5.73
2023-12-14T13:38:13.216Z,5.47
2023-12-14T13:40:41.701Z,6.17
2023-12-14T13:43:12.358Z,5.77
2023-12-14T13:45:43.112Z,5.53
2023-12-14T13:48:12.327Z,4.53
2023-12-14T13:50:41.605Z,5.80
2023-12-14T13:53:10.061Z,5.90
2023-12-14T13:55:38.393Z,7.60
2023-12-14T13:58:06.796Z,5.77
2023-12-14T14:00:37.260Z,5.30
2023-12-14T14:03:06.766Z,4.73
2023-12-14T14:05:35.772Z,5.73
2023-12-14T14:08:04.947Z,4.60
2023-12-14T14:10:33.372Z,4.47
2023-12-14T14:13:01.845Z,4.87
2023-12-14T14:15:30.135Z,5.23
2023-12-14T14:17:59.864Z,4.70
2023-12-14T14:20:28.264Z,4.70
2023-12-14T14:22:57.302Z,4.57
2023-12-14T14:25:25.741Z,5.00
2023-12-14T14:27:54.279Z,4.40
2023-12-14T14:30:22.833Z,5.13
2023-12-14T14:32:51.185Z,5.33
2023-12-14T14:35:21.853Z,5.83
2023-12-14T14:37:51.295Z,4.40
2023-12-14T14:40:19.853Z,4.50
2023-12-14T14:42:48.221Z,4.40
2023-12-14T14:45:16.685Z,4.13
2023-12-14T14:47:45.089Z,4.40
2023-12-14T14:50:13.781Z,4.10
2023-12-14T14:52:43.596Z,3.60
2023-12-14T14:55:11.955Z,6.50
2023-12-14T14:57:40.262Z,3.77
2023-12-14T15:00:10.385Z,4.73
2023-12-14T15:02:38.882Z,4.20
2023-12-14T15:05:08.250Z,4.40
2023-12-14T15:07:36.592Z,4.73
2023-12-14T15:10:07.899Z,4.60
2023-12-14T15:12:36.673Z,4.10
2023-12-14T15:15:09.206Z,5.10
2023-12-14T15:17:39.293Z,4.90
2023-12-14T15:20:09.092Z,5.63
2023-12-14T15:22:38.045Z,5.00
2023-12-14T15:25:09.110Z,5.77
2023-12-14T15:27:38.917Z,5.67
2023-12-14T15:30:10.262Z,7.13
2023-12-14T15:32:40.856Z,5.37
2023-12-14T15:35:10.458Z,5.67
2023-12-14T15:37:38.776Z,6.07
2023-12-14T15:40:10.627Z,5.53
2023-12-14T15:42:39.193Z,6.70
2023-12-14T15:45:10.588Z,6.53
2023-12-14T15:47:39.212Z,8.00
2023-12-14T15:50:09.505Z,7.50
2023-12-14T15:52:38.177Z,9.23
2023-12-14T15:55:09.328Z,8.90
2023-12-14T15:57:38.408Z,8.10
2023-12-14T16:00:09.452Z,7.03
2023-12-14T16:02:39.202Z,6.23
2023-12-14T16:05:09.197Z,7.30
2023-12-14T16:07:38.018Z,6.67
2023-12-14T16:10:09.610Z,6.70
2023-12-14T16:12:38.438Z,6.90
2023-12-14T16:15:08.666Z,7.03
2023-12-14T16:17:37.042Z,8.57
2023-12-14T16:20:07.383Z,7.60
2023-12-14T16:22:36.780Z,8.33
2023-12-14T16:25:05.753Z,8.63
2023-12-14T16:27:35.591Z,7.30
2023-12-14T16:30:04.554Z,8.60
2023-12-14T16:32:33.528Z,5.87
2023-12-14T16:35:02.158Z,5.67
2023-12-14T16:37:32.009Z,5.10
2023-12-14T16:40:00.615Z,4.13
2023-12-14T16:42:29.288Z,4.07
2023-12-14T16:44:59.016Z,4.07
2023-12-14T16:47:27.343Z,3.97
2023-12-14T16:49:55.765Z,4.40
2023-12-14T16:52:24.130Z,4.40
2023-12-14T16:54:52.403Z,4.40
2023-12-14T16:57:22.620Z,5.30
2023-12-14T16:59:51.018Z,5.60
2023-12-14T17:02:20.786Z,4.63
2023-12-14T17:04:49.147Z,4.20
2023-12-14T17:07:17.924Z,3.53
2023-12-14T17:09:46.153Z,4.07
2023-12-14T17:12:14.496Z,4.57
2023-12-14T17:14:43.046Z,4.00
2023-12-14T17:17:11.343Z,3.50
2023-12-14T17:19:41.312Z,3.20
2023-12-14T17:22:09.557Z,2.90
2023-12-14T17:24:37.836Z,3.70
2023-12-14T17:27:06.439Z,3.60
2023-12-14T17:29:35.020Z,3.33
2023-12-14T17:32:04.017Z,3.90
2023-12-14T17:34:32.458Z,4.47
2023-12-14T17:37:02.066Z,4.50
2023-12-14T17:39:30.441Z,4.60
2023-12-14T17:41:58.845Z,4.97
2023-12-14T17:44:27.882Z,5.10
2023-12-14T17:46:58.677Z,4.70
2023-12-14T17:49:27.138Z,4.33
2023-12-14T17:51:55.518Z,4.83
2023-12-14T17:54:25.951Z,4.43
2023-12-14T17:56:54.269Z,8.10
2023-12-14T17:59:22.690Z,4.83
2023-12-14T18:01:52.702Z,5.10
2023-12-14T18:04:22.262Z,5.70
2023-12-14T18:06:50.538Z,4.47
2023-12-14T18:09:19.656Z,4.90
2023-12-14T18:11:49.320Z,4.97
2023-12-14T18:14:17.696Z,4.30
2023-12-14T18:16:46.037Z,4.00
2023-12-14T18:19:14.947Z,4.60
2023-12-14T18:21:45.861Z,4.80
2023-12-14T18:24:14.170Z,4.67
2023-12-14T18:26:42.422Z,5.53
2023-12-14T18:29:12.338Z,5.83
2023-12-14T18:31:40.679Z,6.27
2023-12-14T18:34:09.003Z,7.13
2023-12-14T18:36:37.742Z,6.10
2023-12-14T18:39:05.995Z,6.47
2023-12-14T18:41:34.440Z,6.13
2023-12-14T18:44:03.339Z,5.20
2023-12-14T18:46:33.142Z,5.60
2023-12-14T18:49:01.450Z,5.60
2023-12-14T18:51:29.894Z,6.43
2023-12-14T18:53:58.273Z,5.83
2023-12-14T18:56:28.796Z,5.53
2023-12-14T18:58:58.303Z,5.87
2023-12-14T19:01:26.801Z,5.47
2023-12-14T19:03:57.344Z,5.10
2023-12-14T19:06:25.781Z,5.30
2023-12-14T19:08:54.026Z,5.63
2023-12-14T19:11:22.667Z,6.47
2023-12-14T19:13:52.390Z,5.27
2023-12-14T19:16:25.823Z,5.80
2023-12-14T19:18:55.169Z,6.10
2023-12-14T19:21:25.780Z,5.47
2023-12-14T19:23:54.916Z,6.03
2023-12-14T19:26:25.835Z,6.40
2023-12-14T19:28:56.763Z,6.17
2023-12-14T19:31:26.943Z,5.77
2023-12-14T19:33:55.772Z,6.00
2023-12-14T19:36:25.569Z,4.90
2023-12-14T19:38:54.654Z,4.30
2023-12-14T19:41:23.679Z,5.10
2023-12-14T19:43:52.097Z,3.93
2023-12-14T19:46:22.276Z,4.50
2023-12-14T19:48:50.598Z,4.10
2023-12-14T19:51:18.888Z,3.80
2023-12-14T19:53:48.563Z,3.97
2023-12-14T19:56:17.052Z,3.90
2023-12-14T19:58:46.796Z,3.67
2023-12-14T20:01:15.390Z,4.00
2023-12-14T20:03:43.768Z,3.67
2023-12-14T20:06:21.488Z,4.40
2023-12-14T20:08:51.356Z,3.73
2023-12-14T20:11:20.735Z,3.80
2023-12-14T20:13:49.723Z,3.67
2023-12-14T20:16:18.132Z,3.30
2023-12-14T20:18:46.701Z,2.93
2023-12-14T20:21:15.137Z,3.50
2023-12-14T20:23:43.407Z,3.63
2023-12-14T20:26:22.403Z,3.97
2023-12-14T20:28:54.530Z,3.20
2023-12-14T20:31:22.923Z,3.33
2023-12-14T20:33:52.343Z,3.20
2023-12-14T20:36:20.836Z,3.30
2023-12-14T20:38:49.454Z,2.50
2023-12-14T20:41:20.411Z,2.57
2023-12-14T20:43:48.812Z,2.57
2023-12-14T20:46:17.338Z,2.10
2023-12-14T20:48:45.822Z,2.47
2023-12-14T20:51:15.233Z,2.07
2023-12-14T20:53:43.866Z,1.77
2023-12-14T20:56:12.330Z,1.80
2023-12-14T20:58:43.142Z,1.77
2023-12-14T21:01:11.442Z,2.03
2023-12-14T21:03:40.399Z,1.93
2023-12-14T21:06:09.795Z,1.70
2023-12-14T21:08:38.195Z,1.97
2023-12-14T21:11:07.476Z,1.70
2023-12-14T21:13:36.366Z,1.63
2023-12-14T21:16:07.287Z,1.97
2023-12-14T21:18:35.894Z,1.90
2023-12-14T21:21:06.007Z,2.03
2023-12-14T21:23:34.388Z,1.83
2023-12-14T21:26:06.069Z,2.33
2023-12-14T21:28:36.197Z,1.70
2023-12-14T21:31:06.734Z,2.43
2023-12-14T21:33:35.193Z,1.60
2023-12-14T21:36:03.930Z,2.13
2023-12-14T21:38:33.411Z,1.87
2023-12-14T21:41:01.856Z,1.87
2023-12-14T21:43:30.378Z,2.20
2023-12-14T21:45:58.644Z,2.10
2023-12-14T21:48:28.419Z,2.60
2023-12-14T21:50:56.928Z,2.93
2023-12-14T21:53:25.986Z,2.50
2023-12-14T21:55:54.354Z,2.87
2023-12-14T21:58:22.577Z,2.40
2023-12-14T22:00:50.869Z,3.03
2023-12-14T22:03:19.249Z,3.13
2023-12-14T22:05:49.151Z,3.00
2023-12-14T22:08:17.533Z,3.40
2023-12-14T22:10:45.943Z,2.73
2023-12-14T22:13:14.272Z,3.30
2023-12-14T22:15:42.627Z,3.13
2023-12-14T22:18:11.207Z,3.20
2023-12-14T22:20:39.551Z,3.70
2023-12-14T22:23:09.284Z,3.23
2023-12-14T22:25:37.529Z,3.10
2023-12-14T22:28:06.382Z,3.40
2023-12-14T22:30:34.762Z,3.20
2023-12-14T22:33:03.096Z,2.45
2023-12-14T22:35:31.520Z,2.50
2023-12-14T22:37:59.869Z,2.30
2023-12-14T22:40:29.477Z,2.50
2023-12-14T22:42:57.914Z,2.60
2023-12-14T22:45:26.268Z,2.63
2023-12-14T22:47:54.866Z,2.30
2023-12-14T22:50:23.262Z,2.30
2023-12-14T22:52:51.669Z,2.00
2023-12-14T22:55:19.911Z,2.50
2023-12-14T22:57:49.682Z,2.20
2023-12-14T23:00:22.890Z,1.97
2023-12-14T23:02:51.292Z,2.43
2023-12-14T23:05:19.729Z,2.03
2023-12-14T23:07:48.143Z,2.30
2023-12-14T23:10:16.701Z,2.60
2023-12-14T23:12:44.966Z,2.57
2023-12-14T23:15:15.920Z,2.73
2023-12-14T23:17:44.576Z,2.70
2023-12-14T23:20:13.783Z,3.17
2023-12-14T23:22:42.068Z,2.57
2023-12-14T23:25:10.882Z,3.00
2023-12-14T23:27:39.769Z,2.80
2023-12-14T23:30:09.562Z,3.17
2023-12-14T23:32:39.394Z,2.90
2023-12-14T23:35:09.084Z,2.87
2023-12-14T23:37:37.781Z,2.57
2023-12-14T23:40:07.377Z,3.37
2023-12-14T23:42:35.602Z,4.00
2023-12-14T23:45:03.911Z,3.37
2023-12-14T23:47:32.275Z,3.70
2023-12-14T23:50:02.127Z,3.60
2023-12-14T23:52:30.399Z,3.37
2023-12-14T23:54:58.798Z,3.50
2023-12-14T23:57:27.027Z,3.80
2023-12-14T23:59:55.297Z,3.23
